Time;durP1;ratioP1;P1;durP2;ratioP2;P2;SDS_P1;SDS_P2;PMS_P1;PMS_P2;Temp;Humidity;BMP_temperature;BMP_pressure;BME280_temperature;BME280_humidity;BME280_pressure;Samples;Min_cycle;Max_cycle;Signal;HPM_P1;HPM_P2
2021/07/29 00:02:35;;;;;;;6.33;3.60;;;19.60;99.90;;;;;;10191573;29;20711;-81
2021/07/29 00:07:40;;;;;;;4.03;3.70;;;19.60;99.90;;;;;;10213122;29;20293;-81
2021/07/29 00:12:53;;;;;;;4.00;3.70;;;19.60;99.90;;;;;;10174551;29;20238;-82
2021/07/29 00:23:15;;;;;;;7.70;4.10;;;19.60;99.90;;;;;;10193755;29;20228;-81
2021/07/29 00:28:20;;;;;;;4.60;4.30;;;19.50;99.90;;;;;;10173362;29;20220;-82
2021/07/29 00:33:25;;;;;;;3.43;3.20;;;19.50;99.90;;;;;;10200655;29;20249;-82
2021/07/29 00:38:27;;;;;;;4.57;4.17;;;19.40;99.90;;;;;;10207138;29;20213;-81
2021/07/29 00:43:31;;;;;;;4.00;3.80;;;19.40;99.90;;;;;;10203141;29;20292;-82
2021/07/29 00:48:34;;;;;;;4.47;4.17;;;19.40;99.90;;;;;;10202469;29;20209;-82
2021/07/29 00:53:37;;;;;;;5.60;3.90;;;19.40;99.90;;;;;;10212501;29;20691;-82
2021/07/29 00:58:40;;;;;;;4.27;3.97;;;19.40;99.90;;;;;;10180803;29;20619;-81
2021/07/29 01:03:42;;;;;;;4.00;3.67;;;19.30;99.90;;;;;;10196295;29;20197;-82
2021/07/29 01:09:02;;;;;;;4.50;4.20;;;19.20;99.90;;;;;;10200782;29;20340;-82
2021/07/29 01:14:06;;;;;;;4.30;4.00;;;19.10;99.90;;;;;;10184922;29;20252;-81
2021/07/29 01:19:12;;;;;;;3.97;3.77;;;19.00;99.90;;;;;;10218121;29;20764;-81
2021/07/29 01:24:15;;;;;;;4.60;4.30;;;18.90;99.90;;;;;;10186674;29;20209;-82
2021/07/29 01:29:18;;;;;;;3.90;3.60;;;18.80;99.90;;;;;;10218574;29;20717;-81
2021/07/29 01:34:20;;;;;;;4.30;3.90;;;18.80;99.90;;;;;;10202257;29;20334;-82
2021/07/29 01:39:23;;;;;;;4.57;4.27;;;18.80;99.90;;;;;;10195365;29;20281;-82
2021/07/29 01:44:25;;;;;;;5.27;4.00;;;18.80;99.90;;;;;;10219610;29;20221;-81
2021/07/29 01:49:27;;;;;;;4.40;4.10;;;18.90;99.90;;;;;;10185681;29;20233;-81
2021/07/29 01:54:31;;;;;;;4.83;4.53;;;18.90;99.90;;;;;;10200975;29;20222;-82
2021/07/29 01:59:34;;;;;;;5.47;4.50;;;18.90;99.90;;;;;;10185748;29;20233;-82
2021/07/29 02:04:36;;;;;;;4.40;4.10;;;18.90;99.90;;;;;;10207730;29;20229;-82
2021/07/29 02:09:40;;;;;;;4.97;4.47;;;18.90;99.90;;;;;;10188249;29;20238;-81
2021/07/29 02:14:42;;;;;;;5.33;4.83;;;18.90;99.90;;;;;;10194527;29;20244;-82
2021/07/29 02:19:44;;;;;;;4.10;3.90;;;18.90;99.90;;;;;;10188388;29;20297;-82
2021/07/29 02:24:47;;;;;;;4.83;4.50;;;18.90;99.90;;;;;;10199205;29;20399;-82
2021/07/29 02:29:49;;;;;;;5.23;4.77;;;18.90;99.90;;;;;;10194632;29;20300;-81
2021/07/29 02:34:52;;;;;;;4.57;4.20;;;18.90;99.90;;;;;;10226877;29;20225;-82
2021/07/29 02:39:55;;;;;;;7.60;5.10;;;18.90;99.90;;;;;;10204388;29;20230;-81
2021/07/29 02:44:57;;;;;;;4.90;4.40;;;18.90;99.90;;;;;;10228821;29;20204;-81
2021/07/29 02:49:59;;;;;;;4.73;4.40;;;18.80;99.90;;;;;;10179380;29;20225;-82
2021/07/29 02:55:03;;;;;;;4.90;4.60;;;18.80;99.90;;;;;;10192913;29;20229;-81
2021/07/29 03:00:07;;;;;;;4.80;4.50;;;18.80;99.90;;;;;;10200282;29;20240;-82
2021/07/29 03:05:09;;;;;;;5.40;5.00;;;18.80;99.90;;;;;;10199511;29;20207;-81
2021/07/29 03:10:13;;;;;;;5.90;5.40;;;18.80;99.90;;;;;;10193683;29;20251;-82
2021/07/29 03:15:15;;;;;;;5.80;5.23;;;18.80;99.90;;;;;;10198650;29;20284;-81
2021/07/29 03:20:19;;;;;;;5.90;5.50;;;18.80;99.90;;;;;;10214670;29;20599;-81
2021/07/29 03:25:23;;;;;;;5.57;5.07;;;18.80;99.90;;;;;;10198817;29;20750;-81
2021/07/29 03:30:25;;;;;;;5.60;5.20;;;18.80;99.90;;;;;;10202954;29;20697;-81
2021/07/29 03:35:27;;;;;;;5.30;4.97;;;18.80;99.90;;;;;;10191286;29;20221;-81
2021/07/29 03:40:30;;;;;;;5.97;5.33;;;18.80;99.90;;;;;;10197890;29;20217;-81
2021/07/29 03:45:34;;;;;;;5.97;5.57;;;18.80;99.90;;;;;;10215590;29;20204;-81
2021/07/29 03:50:39;;;;;;;5.33;4.93;;;18.80;99.90;;;;;;10198861;29;20264;-81
2021/07/29 03:55:44;;;;;;;6.00;5.50;;;18.80;99.90;;;;;;10198008;29;20233;-81
2021/07/29 04:00:46;;;;;;;5.47;5.07;;;18.70;99.90;;;;;;10213221;29;20256;-81
2021/07/29 04:05:49;;;;;;;12.60;5.73;;;18.70;99.90;;;;;;10201098;29;20201;-81
2021/07/29 04:10:53;;;;;;;4.87;4.47;;;18.70;99.90;;;;;;10191511;29;20230;-81
2021/07/29 04:16:02;;;;;;;5.90;5.40;;;18.70;99.90;;;;;;10209882;29;20228;-81
2021/07/29 04:21:04;;;;;;;5.13;4.83;;;18.70;99.90;;;;;;10182974;29;20260;-81
2021/07/29 04:26:07;;;;;;;5.53;4.30;;;18.70;99.90;;;;;;10193679;29;20201;-81
2021/07/29 04:31:11;;;;;;;5.00;4.70;;;18.70;99.90;;;;;;10200108;29;20714;-82
2021/07/29 04:36:13;;;;;;;5.47;5.07;;;18.80;99.90;;;;;;10185494;29;20308;-82
2021/07/29 04:41:16;;;;;;;5.63;5.20;;;18.80;99.90;;;;;;10194587;29;20225;-82
2021/07/29 04:46:18;;;;;;;5.40;4.90;;;18.80;99.90;;;;;;10200650;29;20235;-82
2021/07/29 04:51:20;;;;;;;9.83;5.43;;;18.80;99.90;;;;;;10191140;29;20316;-82
2021/07/29 04:56:24;;;;;;;5.63;5.23;;;18.80;99.90;;;;;;10196195;29;20316;-82
2021/07/29 05:01:26;;;;;;;5.07;4.70;;;18.90;99.90;;;;;;10217693;29;20267;-81
2021/07/29 05:06:28;;;;;;;6.07;5.47;;;18.90;99.90;;;;;;10192791;29;20207;-81
2021/07/29 05:11:32;;;;;;;4.73;4.33;;;19.00;99.90;;;;;;10193953;29;20366;-81
2021/07/29 05:16:34;;;;;;;4.63;4.33;;;19.00;99.90;;;;;;10186826;29;20240;-81
2021/07/29 05:21:36;;;;;;;4.90;4.50;;;19.00;99.90;;;;;;10193119;29;20316;-81
2021/07/29 05:26:41;;;;;;;5.00;4.60;;;19.10;99.90;;;;;;10160115;29;20194;-81
2021/07/29 05:31:43;;;;;;;4.30;4.00;;;19.10;99.90;;;;;;10170646;29;20808;-81
2021/07/29 05:36:45;;;;;;;4.63;4.20;;;19.20;99.90;;;;;;10210567;29;20714;-81
2021/07/29 05:41:49;;;;;;;4.03;3.83;;;19.20;99.90;;;;;;10185612;29;20319;-81
2021/07/29 05:46:51;;;;;;;4.63;4.33;;;19.30;99.90;;;;;;10199231;29;20284;-81
2021/07/29 05:51:53;;;;;;;4.90;4.40;;;19.40;99.90;;;;;;10181145;29;20235;-82
2021/07/29 05:56:56;;;;;;;4.60;4.30;;;19.40;99.90;;;;;;10187281;29;20229;-81
2021/07/29 06:01:58;;;;;;;4.23;4.03;;;19.50;99.90;;;;;;10202034;29;20252;-81
2021/07/29 06:07:01;;;;;;;4.40;4.10;;;19.80;99.90;;;;;;10181308;29;20216;-82
2021/07/29 06:12:05;;;;;;;4.13;3.83;;;20.00;99.90;;;;;;10188485;29;20292;-82
2021/07/29 06:17:07;;;;;;;4.43;4.13;;;20.20;99.90;;;;;;10211264;29;20229;-82
2021/07/29 06:22:09;;;;;;;4.63;4.30;;;20.30;99.90;;;;;;10186491;29;20221;-82
2021/07/29 06:27:12;;;;;;;3.50;3.20;;;20.50;99.90;;;;;;10184383;29;20299;-82
2021/07/29 06:32:14;;;;;;;3.40;3.20;;;20.60;99.90;;;;;;10202782;29;20239;-82
2021/07/29 06:37:16;;;;;;;4.03;3.67;;;20.90;99.90;;;;;;10205535;29;20225;-82
2021/07/29 06:42:20;;;;;;;3.90;3.60;;;21.10;99.90;;;;;;10203147;29;20225;-82
2021/07/29 06:47:23;;;;;;;4.20;3.90;;;21.40;99.90;;;;;;10195678;29;20205;-82
2021/07/29 06:52:26;;;;;;;4.53;4.13;;;21.70;99.90;;;;;;10200619;29;20339;-82
2021/07/29 06:57:29;;;;;;;4.40;4.10;;;21.90;99.90;;;;;;10203728;29;20237;-82
2021/07/29 07:02:31;;;;;;;5.00;3.40;;;21.90;99.90;;;;;;10203191;29;20255;-82
2021/07/29 07:07:33;;;;;;;4.93;4.60;;;22.00;99.90;;;;;;10219362;29;20212;-82
2021/07/29 07:12:37;;;;;;;4.77;3.83;;;22.20;99.90;;;;;;10184458;29;20229;-82
2021/07/29 07:17:39;;;;;;;4.30;3.90;;;22.40;99.90;;;;;;10199635;29;20604;-82
2021/07/29 07:22:41;;;;;;;3.77;3.47;;;22.50;99.90;;;;;;10200837;29;20280;-82
2021/07/29 07:27:45;;;;;;;5.43;3.87;;;22.60;99.90;;;;;;10218055;29;20201;-82
2021/07/29 07:32:47;;;;;;;3.73;3.43;;;22.70;99.90;;;;;;10198426;29;20233;-82
2021/07/29 07:37:49;;;;;;;5.00;3.97;;;22.80;99.90;;;;;;10201834;29;20240;-82
2021/07/29 07:42:53;;;;;;;4.20;3.90;;;22.80;99.90;;;;;;10182811;29;20267;-82
2021/07/29 07:47:55;;;;;;;5.83;3.50;;;23.00;99.90;;;;;;10198201;29;20205;-82
2021/07/29 07:52:57;;;;;;;4.23;3.90;;;23.30;99.90;;;;;;10198326;29;20237;-82
2021/07/29 07:58:01;;;;;;;4.00;3.70;;;23.80;99.90;;;;;;10215000;29;20735;-82
2021/07/29 08:03:03;;;;;;;3.97;3.67;;;24.00;99.90;;;;;;10194795;29;20717;-82
2021/07/29 08:08:07;;;;;;;4.03;3.73;;;24.00;99.90;;;;;;10213148;29;20288;-82
2021/07/29 08:13:13;;;;;;;4.13;3.73;;;24.10;99.90;;;;;;10198134;29;20229;-83
2021/07/29 08:18:15;;;;;;;3.80;3.40;;;24.50;99.30;;;;;;10197036;29;20228;-82
2021/07/29 08:23:17;;;;;;;6.13;3.73;;;24.90;99.90;;;;;;10198175;29;20233;-83
2021/07/29 08:28:24;;;;;;;4.10;3.73;;;25.30;98.10;;;;;;10216198;29;20205;-83
2021/07/29 08:33:26;;;;;;;5.73;3.67;;;25.50;99.10;;;;;;10183342;29;20213;-82
2021/07/29 08:38:28;;;;;;;3.30;3.10;;;25.70;97.80;;;;;;10192248;29;20229;-83
2021/07/29 08:43:33;;;;;;;4.60;4.17;;;26.10;96.40;;;;;;10191431;29;20209;-82
2021/07/29 08:48:36;;;;;;;3.80;3.50;;;26.90;95.70;;;;;;10198984;29;20635;-83
2021/07/29 08:53:38;;;;;;;5.93;3.67;;;27.60;91.80;;;;;;10211177;29;20734;-83
2021/07/29 08:58:42;;;;;;;4.10;3.70;;;28.10;92.40;;;;;;10202651;29;20323;-83
2021/07/29 09:03:45;;;;;;;3.97;3.57;;;28.10;88.60;;;;;;10200290;29;20205;-83
2021/07/29 09:08:48;;;;;;;4.43;4.00;;;28.20;89.40;;;;;;10216751;29;20225;-83
2021/07/29 09:14:07;;;;;;;4.20;3.90;;;28.50;86.30;;;;;;10198755;29;20228;-83
2021/07/29 09:19:28;;;;;;;3.93;3.63;;;28.70;84.10;;;;;;10217150;29;20248;-83
2021/07/29 09:24:30;;;;;;;4.50;4.10;;;29.20;80.30;;;;;;10184021;29;20208;-83
2021/07/29 09:29:34;;;;;;;5.03;3.50;;;29.70;82.50;;;;;;10202064;29;20233;-83
2021/07/29 09:34:47;;;;;;;4.73;3.80;;;30.00;78.20;;;;;;10212915;29;20217;-83
2021/07/29 09:40:00;;;;;;;4.10;3.80;;;30.20;74.50;;;;;;10197350;29;20240;-83
2021/07/29 09:45:04;;;;;;;3.77;3.47;;;29.60;72.00;;;;;;10214649;29;20204;-83
2021/07/29 09:50:07;;;;;;;4.20;3.90;;;29.20;75.40;;;;;;10191902;29;20284;-83
2021/07/29 09:55:09;;;;;;;4.47;4.07;;;28.50;75.10;;;;;;10181882;29;20605;-83
2021/07/29 10:00:15;;;;;;;3.93;3.63;;;27.90;73.10;;;;;;10215125;29;20257;-83
2021/07/29 10:05:20;;;;;;;4.63;4.23;;;27.70;74.30;;;;;;10201498;29;20207;-83
2021/07/29 10:10:25;;;;;;;4.80;3.80;;;28.20;71.90;;;;;;10184545;29;20225;-83
2021/07/29 10:15:50;;;;;;;4.73;4.33;;;28.70;71.40;;;;;;10185861;29;20234;-83
2021/07/29 10:21:22;;;;;;;4.33;4.03;;;28.80;71.00;;;;;;10192903;29;20227;-83
2021/07/29 10:26:25;;;;;;;4.60;4.30;;;29.50;70.20;;;;;;10221064;29;20198;-83
2021/07/29 10:31:48;;;;;;;4.27;3.97;;;29.30;68.40;;;;;;10186731;29;20670;-83
2021/07/29 10:36:51;;;;;;;6.23;4.10;;;28.50;70.00;;;;;;10198851;29;20257;-83
2021/07/29 10:41:56;;;;;;;4.57;4.17;;;27.80;71.10;;;;;;10172345;29;20225;-83
2021/07/29 10:47:05;;;;;;;4.20;3.83;;;27.20;71.90;;;;;;10175474;29;20227;-83
2021/07/29 10:52:09;;;;;;;4.83;4.43;;;26.90;71.70;;;;;;10341590;23;20234;-83
2021/07/29 10:57:12;;;;;;;6.33;4.47;;;26.60;70.60;;;;;;10273363;28;20231;-83
2021/07/29 11:02:20;;;;;;;5.00;4.60;;;26.30;73.80;;;;;;10275596;28;20235;-83
2021/07/29 11:07:22;;;;;;;4.20;3.90;;;26.20;77.00;;;;;;10296696;28;20284;-83
2021/07/29 11:12:24;;;;;;;4.73;4.33;;;26.30;76.40;;;;;;10274887;28;20314;-83
2021/07/29 11:17:28;;;;;;;4.80;4.50;;;26.30;72.20;;;;;;10263415;28;20696;-83
2021/07/29 11:22:30;;;;;;;5.10;4.70;;;26.00;72.40;;;;;;10280097;28;20603;-83
2021/07/29 11:27:32;;;;;;;4.90;4.50;;;25.70;73.50;;;;;;10279463;28;20283;-82
2021/07/29 11:32:38;;;;;;;4.87;4.50;;;25.40;76.10;;;;;;10280389;28;20254;-83
2021/07/29 11:37:42;;;;;;;4.30;4.00;;;25.20;76.10;;;;;;10297394;28;20282;-83
2021/07/29 11:42:44;;;;;;;4.23;3.87;;;25.30;77.40;;;;;;10264278;28;20684;-82
2021/07/29 11:47:47;;;;;;;4.90;4.60;;;25.40;77.20;;;;;;10277718;28;20207;-82
2021/07/29 11:52:53;;;;;;;4.90;4.57;;;25.50;76.50;;;;;;10242102;28;1106755;-82
2021/07/29 11:57:55;;;;;;;4.87;4.47;;;25.50;75.60;;;;;;10282451;28;20231;-82
2021/07/29 12:03:00;;;;;;;5.10;4.70;;;25.40;72.50;;;;;;10281626;28;20642;-82
2021/07/29 12:08:04;;;;;;;5.47;5.07;;;25.20;78.10;;;;;;10265059;28;20204;-82
2021/07/29 12:13:09;;;;;;;4.57;4.27;;;25.20;76.60;;;;;;10282742;28;20282;-82
2021/07/29 12:18:16;;;;;;;4.97;4.60;;;25.30;80.10;;;;;;10279625;28;20310;-82
2021/07/29 12:23:19;;;;;;;4.63;4.23;;;25.50;81.70;;;;;;10282006;28;20278;-83
2021/07/29 12:28:42;;;;;;;5.53;4.53;;;25.50;77.40;;;;;;10298122;28;20204;-82
2021/07/29 12:34:05;;;;;;;5.00;4.50;;;25.40;73.80;;;;;;10299460;23;20743;-82
2021/07/29 12:39:07;;;;;;;7.10;4.80;;;25.30;75.60;;;;;;10277212;28;20234;-83
2021/07/29 12:44:15;;;;;;;4.50;4.07;;;25.30;78.70;;;;;;10276819;28;20216;-83
2021/07/29 12:49:20;;;;;;;4.50;4.20;;;25.20;78.80;;;;;;10265469;28;20226;-83
2021/07/29 12:54:23;;;;;;;4.80;4.40;;;25.30;78.30;;;;;;10287176;28;20599;-83
2021/07/29 12:59:25;;;;;;;5.40;5.00;;;25.40;77.90;;;;;;10288020;28;20227;-83
2021/07/29 13:04:29;;;;;;;4.57;4.00;;;25.30;84.20;;;;;;10294179;28;20211;-83
2021/07/29 13:09:31;;;;;;;4.70;4.40;;;25.30;84.50;;;;;;10275732;28;20617;-83
2021/07/29 13:14:33;;;;;;;5.00;4.60;;;25.20;80.50;;;;;;10265264;28;20298;-83
2021/07/29 13:19:38;;;;;;;5.00;4.50;;;25.10;83.70;;;;;;10293538;28;20361;-83
2021/07/29 13:24:40;;;;;;;6.20;4.87;;;25.00;75.40;;;;;;10296896;28;20702;-83
2021/07/29 13:29:42;;;;;;;4.90;4.50;;;24.90;77.70;;;;;;10273954;28;20232;-83
2021/07/29 13:34:46;;;;;;;7.07;4.83;;;24.90;75.70;;;;;;10284647;28;20226;-83
2021/07/29 13:39:48;;;;;;;4.80;4.40;;;25.00;79.00;;;;;;10292491;28;20230;-83
2021/07/29 13:44:57;;;;;;;4.73;4.37;;;25.00;77.10;;;;;;10276810;28;20239;-83
2021/07/29 13:50:00;;;;;;;4.23;3.93;;;25.10;77.70;;;;;;10292944;28;20216;-83
2021/07/29 13:55:03;;;;;;;5.13;4.50;;;25.20;76.30;;;;;;10278531;28;20712;-83
2021/07/29 14:00:07;;;;;;;4.80;4.40;;;25.30;75.90;;;;;;10248941;28;20319;-83
2021/07/29 14:05:13;;;;;;;4.87;4.50;;;25.40;78.70;;;;;;10252227;28;20329;-83
2021/07/29 14:10:17;;;;;;;4.77;4.37;;;25.60;75.30;;;;;;10268337;28;20224;-83
2021/07/29 14:15:19;;;;;;;3.93;3.63;;;25.70;79.80;;;;;;10266988;28;20275;-83
2021/07/29 14:20:26;;;;;;;4.23;3.93;;;25.80;76.50;;;;;;10264734;28;20239;-83
2021/07/29 14:25:30;;;;;;;4.40;4.00;;;25.90;77.70;;;;;;10251849;28;20201;-83
2021/07/29 14:30:32;;;;;;;4.57;4.17;;;25.90;77.40;;;;;;10251584;28;20227;-83
2021/07/29 14:41:22;;;;;;;4.40;4.10;;;25.80;82.20;;;;;;10274823;28;20226;-83
2021/07/29 14:52:06;;;;;;;4.30;4.00;;;25.90;76.60;;;;;;10244189;28;20655;-83
2021/07/29 14:57:12;;;;;;;4.20;3.90;;;25.80;76.60;;;;;;10264807;28;20231;-83
2021/07/29 16:11:42;;;;;;;4.03;3.83;;;25.70;77.60;;;;;;10286833;28;20259;-83
2021/07/29 16:16:46;;;;;;;4.57;4.17;;;25.70;80.80;;;;;;10293582;28;20223;-82
2021/07/29 16:21:50;;;;;;;5.00;4.30;;;25.60;81.60;;;;;;10292923;28;20242;-83
2021/07/29 16:26:54;;;;;;;4.50;3.77;;;25.40;78.10;;;;;;10271551;28;20215;-83
2021/07/29 16:31:56;;;;;;;4.67;3.90;;;25.20;79.80;;;;;;10264242;28;20338;-83
2021/07/29 16:36:58;;;;;;;3.90;3.60;;;25.00;77.90;;;;;;10293872;28;20231;-82
2021/07/29 16:42:03;;;;;;;4.10;3.80;;;25.00;80.80;;;;;;10293597;28;20232;-83
2021/07/29 16:47:05;;;;;;;4.30;4.00;;;24.90;77.90;;;;;;10276664;28;20246;-83
2021/07/29 16:52:07;;;;;;;4.37;4.07;;;24.70;80.10;;;;;;10278779;28;20259;-82
2021/07/29 16:57:11;;;;;;;4.43;4.03;;;24.70;79.60;;;;;;10295040;28;20228;-82
2021/07/29 17:02:13;;;;;;;4.90;3.97;;;24.70;82.80;;;;;;10285844;28;20619;-82
2021/07/29 17:07:15;;;;;;;4.13;3.83;;;24.60;82.30;;;;;;10276036;28;20204;-83
2021/07/29 17:12:21;;;;;;;4.20;3.90;;;24.50;80.70;;;;;;10276813;28;20315;-83
2021/07/29 17:17:24;;;;;;;3.70;3.40;;;24.40;79.20;;;;;;10263450;28;20216;-83
2021/07/29 17:22:26;;;;;;;3.50;3.20;;;24.40;81.90;;;;;;10292403;28;20254;-82
2021/07/29 17:27:30;;;;;;;4.00;3.73;;;24.30;80.80;;;;;;10276818;28;20294;-82
2021/07/29 17:32:32;;;;;;;4.00;3.70;;;24.20;90.40;;;;;;10281931;28;20236;-82
2021/07/29 17:37:35;;;;;;;4.37;4.00;;;24.20;85.10;;;;;;10291568;28;20314;-83
2021/07/29 17:42:38;;;;;;;4.10;3.77;;;24.00;82.50;;;;;;10288895;28;20232;-81
2021/07/29 17:47:41;;;;;;;3.70;3.50;;;24.00;84.90;;;;;;10279762;28;20577;-82
2021/07/29 17:52:43;;;;;;;3.10;2.90;;;23.90;86.10;;;;;;10270144;28;20260;-82
2021/07/29 17:57:47;;;;;;;4.73;4.33;;;23.80;87.20;;;;;;10283594;28;20229;-83
2021/07/29 18:02:49;;;;;;;4.27;3.87;;;23.80;86.80;;;;;;10291829;28;20220;-82
2021/07/29 18:07:51;;;;;;;3.87;3.10;;;23.80;85.00;;;;;;10290621;28;20242;-82
2021/07/29 18:12:55;;;;;;;3.80;3.40;;;23.70;88.00;;;;;;10268092;28;20232;-83
2021/07/29 18:17:57;;;;;;;3.83;3.60;;;23.70;90.50;;;;;;10275266;28;20743;-83
2021/07/29 18:22:59;;;;;;;3.60;3.40;;;23.60;90.00;;;;;;10269183;28;20232;-83
2021/07/29 18:28:03;;;;;;;5.37;3.90;;;23.50;88.00;;;;;;10292384;28;20204;-82
2021/07/29 18:33:10;;;;;;;4.13;3.83;;;23.40;91.30;;;;;;10294027;23;20324;-81
2021/07/29 18:38:12;;;;;;;4.30;4.00;;;23.40;90.10;;;;;;10274813;28;20286;-81
2021/07/29 18:43:15;;;;;;;4.33;3.50;;;23.20;91.40;;;;;;10273251;28;20316;-82
2021/07/29 18:48:17;;;;;;;4.20;3.80;;;23.20;91.70;;;;;;10297132;28;20210;-81
2021/07/29 18:53:19;;;;;;;5.20;3.70;;;23.10;90.00;;;;;;10264820;28;20235;-82
2021/07/29 18:58:23;;;;;;;4.10;3.80;;;23.00;92.90;;;;;;10281019;28;20267;-82
2021/07/29 19:03:25;;;;;;;3.90;3.60;;;23.00;92.70;;;;;;10278820;28;20216;-82
2021/07/29 19:08:27;;;;;;;4.40;4.00;;;22.90;92.20;;;;;;10295470;28;20207;-82
2021/07/29 19:13:34;;;;;;;3.53;3.30;;;22.90;92.80;;;;;;10279953;28;20262;-82
2021/07/29 19:18:36;;;;;;;5.00;4.60;;;22.80;94.90;;;;;;10302564;28;20230;-82
2021/07/29 19:23:38;;;;;;;5.00;4.60;;;22.80;96.00;;;;;;10285774;28;20243;-82
2021/07/29 19:28:41;;;;;;;4.23;3.83;;;22.70;94.80;;;;;;10262982;28;20295;-82
2021/07/29 19:33:44;;;;;;;4.33;3.97;;;22.60;94.70;;;;;;10279705;28;20290;-82
2021/07/29 19:38:46;;;;;;;4.53;4.20;;;22.50;93.90;;;;;;10279630;28;20216;-82
2021/07/29 19:43:49;;;;;;;4.20;3.90;;;22.50;92.50;;;;;;10296705;28;20223;-82
2021/07/29 19:48:52;;;;;;;3.67;3.37;;;22.30;93.60;;;;;;10261106;28;20208;-82
2021/07/29 19:53:54;;;;;;;4.17;3.87;;;22.20;91.50;;;;;;10277458;28;20227;-81
2021/07/29 19:58:57;;;;;;;4.53;4.23;;;22.10;92.80;;;;;;10292546;28;20215;-82
2021/07/29 20:03:59;;;;;;;5.50;4.17;;;22.00;94.00;;;;;;10277532;28;20227;-82
2021/07/29 20:09:01;;;;;;;5.73;4.40;;;22.00;94.10;;;;;;10278400;28;20289;-81
2021/07/29 20:14:05;;;;;;;4.10;3.80;;;21.80;94.00;;;;;;10279404;28;20722;-82
2021/07/29 20:19:07;;;;;;;4.37;3.97;;;21.70;94.60;;;;;;10277577;28;20663;-81
2021/07/29 20:24:09;;;;;;;4.90;4.20;;;21.50;95.00;;;;;;10261647;28;20228;-82
2021/07/29 20:29:12;;;;;;;5.13;4.73;;;21.40;95.90;;;;;;10263432;28;20245;-82
2021/07/29 20:34:15;;;;;;;6.40;4.27;;;21.40;95.70;;;;;;10277897;28;20232;-82
2021/07/29 20:39:17;;;;;;;5.23;4.13;;;21.20;95.10;;;;;;10293776;28;20231;-82
2021/07/29 20:44:20;;;;;;;5.30;4.80;;;21.10;95.80;;;;;;10274117;28;20219;-81
2021/07/29 20:49:22;;;;;;;5.53;4.60;;;21.00;96.40;;;;;;10267327;28;20581;-81
2021/07/29 20:54:24;;;;;;;4.70;4.40;;;21.00;96.10;;;;;;10278791;28;20283;-81
2021/07/29 20:59:28;;;;;;;4.60;4.20;;;20.90;96.40;;;;;;10281439;28;20775;-81
2021/07/29 21:04:30;;;;;;;4.77;4.37;;;20.90;96.50;;;;;;10297429;28;20639;-81
2021/07/29 21:09:32;;;;;;;4.57;4.10;;;20.80;96.80;;;;;;10301612;28;20280;-81
2021/07/29 21:14:36;;;;;;;5.20;4.70;;;20.80;97.00;;;;;;10305599;28;20202;-82
2021/07/29 21:19:38;;;;;;;4.47;4.07;;;20.70;96.50;;;;;;10260303;28;20696;-82
2021/07/29 21:24:40;;;;;;;4.60;4.23;;;20.70;97.90;;;;;;10281469;28;20687;-81
2021/07/29 21:29:44;;;;;;;5.13;4.73;;;20.60;97.40;;;;;;10264461;28;20667;-82
2021/07/29 21:34:46;;;;;;;5.17;4.77;;;20.50;97.50;;;;;;10300821;28;20200;-82
2021/07/29 21:39:48;;;;;;;4.63;4.23;;;20.40;97.80;;;;;;10278186;28;20219;-81
2021/07/29 21:44:52;;;;;;;5.07;4.67;;;20.40;98.00;;;;;;10257911;28;20208;-81
2021/07/29 21:49:58;;;;;;;4.60;4.20;;;20.30;97.50;;;;;;10274596;28;20228;-81
2021/07/29 21:55:00;;;;;;;5.27;4.70;;;20.20;97.90;;;;;;10271048;28;20469;-81
2021/07/29 22:00:10;;;;;;;7.13;5.10;;;20.20;97.60;;;;;;10272799;28;20282;-81
2021/07/29 22:05:14;;;;;;;5.07;4.50;;;20.10;98.00;;;;;;10272475;28;20214;-81
2021/07/29 22:10:16;;;;;;;5.30;4.90;;;20.10;98.40;;;;;;10275475;28;20224;-81
2021/07/29 22:15:22;;;;;;;4.60;4.20;;;20.00;97.90;;;;;;10273640;28;20234;-82
2021/07/29 22:20:24;;;;;;;6.93;5.00;;;20.00;99.50;;;;;;10260169;28;20711;-81
2021/07/29 22:25:26;;;;;;;5.33;4.93;;;19.90;98.30;;;;;;10284239;28;20703;-81
2021/07/29 22:30:30;;;;;;;5.40;5.00;;;20.00;97.00;;;;;;10300704;28;20235;-82
2021/07/29 22:35:32;;;;;;;10.03;5.50;;;19.90;99.00;;;;;;10282146;28;20644;-81
2021/07/29 22:40:34;;;;;;;5.40;4.90;;;19.90;98.40;;;;;;10264592;28;20294;-81
2021/07/29 22:45:38;;;;;;;4.10;3.90;;;19.90;99.10;;;;;;10279292;28;20304;-81
2021/07/29 22:50:40;;;;;;;4.90;4.40;;;19.80;99.00;;;;;;10261785;28;20224;-81
2021/07/29 22:55:42;;;;;;;5.23;4.40;;;19.80;99.90;;;;;;10298892;28;20291;-81
2021/07/29 23:00:45;;;;;;;4.70;4.30;;;19.80;99.90;;;;;;10278098;28;20228;-81
2021/07/29 23:05:49;;;;;;;5.03;4.20;;;19.80;98.00;;;;;;10278387;28;20204;-81
2021/07/29 23:10:51;;;;;;;4.30;3.90;;;19.70;99.00;;;;;;10260792;28;20684;-81
2021/07/29 23:15:55;;;;;;;7.50;4.60;;;19.70;97.50;;;;;;10278455;28;20216;-81
2021/07/29 23:20:57;;;;;;;4.10;3.83;;;19.60;98.80;;;;;;10258083;28;20238;-81
2021/07/29 23:31:25;;;;;;;5.07;4.17;;;19.60;99.30;;;;;;10233124;28;20235;-81
2021/07/29 23:36:29;;;;;;;5.17;4.63;;;19.50;98.70;;;;;;10291874;28;20203;-81
2021/07/29 23:41:31;;;;;;;5.77;5.27;;;19.50;99.50;;;;;;10294089;28;20587;-81
2021/07/29 23:46:36;;;;;;;5.07;4.67;;;19.40;99.50;;;;;;10274588;28;20216;-81
2021/07/29 23:51:38;;;;;;;4.93;4.27;;;19.40;99.90;;;;;;10288777;28;20290;-81
2021/07/29 23:56:41;;;;;;;4.93;4.43;;;19.40;99.90;;;;;;10308108;28;20626;-81
